Time;durP1;ratioP1;P1;durP2;ratioP2;P2;SDS_P1;SDS_P2;PMS_P1;PMS_P2;Temp;Humidity;BMP_temperature;BMP_pressure;BME280_temperature;BME280_humidity;BME280_pressure;Samples;Min_cycle;Max_cycle;Signal;HPM_P1;HPM_P2
2023/05/31 00:02:15;;;;;;;13.00;7.93;;;15.80;99.10;;;;;;5016850;28;20124;-54
2023/05/31 00:04:41;;;;;;;11.98;6.97;;;15.80;99.20;;;;;;5009369;28;20409;-54
2023/05/31 00:07:07;;;;;;;10.77;4.63;;;15.80;99.30;;;;;;5010256;28;20050;-54
2023/05/31 00:09:33;;;;;;;6.28;3.50;;;15.70;99.40;;;;;;5017441;28;21539;-54
2023/05/31 00:11:59;;;;;;;11.93;6.07;;;15.70;99.60;;;;;;5017546;28;20077;-54
2023/05/31 00:14:25;;;;;;;17.23;6.63;;;15.60;99.70;;;;;;5015558;28;20050;-55
2023/05/31 00:16:52;;;;;;;19.70;7.90;;;15.60;99.80;;;;;;5020373;28;20042;-56
2023/05/31 00:19:18;;;;;;;13.60;7.05;;;15.60;99.90;;;;;;5017647;28;20619;-55
2023/05/31 00:21:45;;;;;;;21.08;8.43;;;15.60;99.90;;;;;;5017161;28;20129;-55
2023/05/31 00:24:14;;;;;;;15.23;7.85;;;15.50;99.90;;;;;;5013855;28;20095;-55
2023/05/31 00:26:39;;;;;;;18.10;8.20;;;15.40;99.90;;;;;;5013375;28;20204;-56
2023/05/31 00:29:05;;;;;;;16.63;7.80;;;15.40;99.90;;;;;;5014455;28;20280;-55
2023/05/31 00:31:31;;;;;;;8.43;5.30;;;15.40;99.90;;;;;;5008717;28;20042;-59
2023/05/31 00:33:57;;;;;;;20.15;10.70;;;15.40;99.90;;;;;;5014432;28;20061;-57
2023/05/31 00:36:23;;;;;;;13.80;7.47;;;15.40;99.90;;;;;;5011894;28;20091;-58
2023/05/31 00:38:49;;;;;;;17.02;7.50;;;15.40;99.90;;;;;;5014495;28;20046;-58
2023/05/31 00:41:15;;;;;;;11.20;7.32;;;15.40;99.90;;;;;;5013340;28;20643;-58
2023/05/31 00:43:41;;;;;;;16.77;8.93;;;15.30;99.90;;;;;;5014411;28;20041;-58
2023/05/31 00:46:11;;;;;;;12.38;7.60;;;15.30;99.90;;;;;;5016628;28;20057;-58
2023/05/31 00:48:38;;;;;;;17.00;9.30;;;15.20;99.90;;;;;;5010562;28;20113;-58
2023/05/31 00:51:05;;;;;;;13.18;7.45;;;15.20;99.90;;;;;;4997341;28;20132;-57
2023/05/31 00:53:31;;;;;;;18.83;7.55;;;15.20;99.90;;;;;;5013474;28;20089;-58
2023/05/31 00:56:00;;;;;;;16.52;8.10;;;15.10;99.90;;;;;;5010816;28;20601;-58
2023/05/31 00:58:27;;;;;;;18.58;9.98;;;15.00;99.90;;;;;;5011331;28;20043;-58
2023/05/31 01:00:55;;;;;;;16.23;9.27;;;15.00;99.90;;;;;;5013736;28;20053;-58
2023/05/31 01:03:20;;;;;;;13.27;7.65;;;15.00;99.90;;;;;;5016508;28;20053;-58
2023/05/31 01:05:46;;;;;;;16.40;7.82;;;15.00;99.90;;;;;;5011501;28;20045;-58
2023/05/31 01:08:14;;;;;;;19.95;8.15;;;15.00;99.90;;;;;;5014005;28;20050;-58
2023/05/31 01:10:40;;;;;;;15.52;8.77;;;15.00;99.90;;;;;;5011202;28;20054;-58
2023/05/31 01:13:16;;;;;;;14.80;7.63;;;15.00;99.90;;;;;;5012619;28;20037;-58
2023/05/31 01:16:11;;;;;;;14.70;7.18;;;14.90;99.90;;;;;;5022909;28;20053;-58
2023/05/31 01:18:44;;;;;;;21.60;8.32;;;14.90;99.90;;;;;;5016938;28;20046;-58
2023/05/31 01:21:11;;;;;;;15.63;8.25;;;14.80;99.90;;;;;;5020556;28;20064;-58
2023/05/31 01:23:49;;;;;;;17.55;9.23;;;14.80;99.90;;;;;;5021731;28;20133;-58
2023/05/31 01:26:33;;;;;;;18.67;8.40;;;14.80;99.90;;;;;;5017318;28;20052;-58
2023/05/31 01:29:21;;;;;;;18.50;8.70;;;14.80;99.90;;;;;;5022196;28;20041;-58
2023/05/31 01:31:48;;;;;;;14.45;7.53;;;14.80;99.90;;;;;;5022470;28;20592;-57
2023/05/31 01:34:14;;;;;;;11.70;7.00;;;14.80;99.90;;;;;;5020661;28;20130;-58
2023/05/31 01:36:40;;;;;;;12.05;5.75;;;14.70;99.90;;;;;;5020198;28;20044;-57
2023/05/31 01:39:07;;;;;;;19.25;8.60;;;14.70;99.90;;;;;;5021584;28;20042;-58
2023/05/31 01:41:39;;;;;;;17.05;9.80;;;14.60;99.90;;;;;;5018566;28;20046;-57
2023/05/31 01:44:06;;;;;;;16.58;8.82;;;14.60;99.90;;;;;;5018963;28;20049;-58
2023/05/31 01:46:32;;;;;;;16.92;9.98;;;14.60;99.90;;;;;;5017731;28;20489;-58
2023/05/31 01:48:59;;;;;;;14.07;9.68;;;14.60;99.90;;;;;;5011106;28;20041;-58
2023/05/31 01:51:26;;;;;;;13.95;7.57;;;14.60;99.90;;;;;;5010233;28;20049;-58
2023/05/31 01:53:52;;;;;;;20.25;10.93;;;14.50;99.90;;;;;;5016110;28;20061;-58
2023/05/31 01:56:21;;;;;;;14.65;8.05;;;14.40;99.90;;;;;;5021254;28;20042;-58
2023/05/31 01:58:49;;;;;;;16.52;9.75;;;14.50;99.90;;;;;;5020245;28;20502;-58
2023/05/31 02:01:17;;;;;;;16.48;10.55;;;14.50;99.90;;;;;;5019862;28;20640;-59
2023/05/31 02:03:43;;;;;;;11.52;7.25;;;14.40;99.90;;;;;;5020309;28;20053;-58
2023/05/31 02:06:12;;;;;;;15.80;10.15;;;14.40;99.90;;;;;;5034580;28;20083;-58
2023/05/31 02:08:39;;;;;;;14.73;8.45;;;14.30;99.90;;;;;;5014923;28;20136;-58
2023/05/31 02:11:05;;;;;;;16.42;9.32;;;14.30;99.90;;;;;;5021858;28;20123;-58
2023/05/31 02:13:31;;;;;;;13.10;8.25;;;14.30;99.90;;;;;;5022474;28;20454;-57
2023/05/31 02:15:57;;;;;;;15.52;9.55;;;14.30;99.90;;;;;;5023915;28;20053;-58
2023/05/31 02:18:26;;;;;;;17.05;9.27;;;14.30;99.90;;;;;;5017877;28;20045;-58
2023/05/31 02:20:52;;;;;;;19.48;12.68;;;14.20;99.90;;;;;;5014006;28;20057;-58
2023/05/31 02:23:19;;;;;;;19.55;10.38;;;14.20;99.90;;;;;;5012158;28;20073;-58
2023/05/31 02:25:46;;;;;;;20.05;10.27;;;14.20;99.90;;;;;;5012432;28;20059;-58
2023/05/31 02:28:12;;;;;;;14.80;9.23;;;14.20;99.90;;;;;;5009393;28;20133;-58
2023/05/31 02:30:38;;;;;;;14.10;9.40;;;14.20;99.90;;;;;;5012139;28;20132;-59
2023/05/31 02:33:04;;;;;;;18.92;9.27;;;14.20;99.90;;;;;;5009976;28;20081;-58
2023/05/31 02:35:30;;;;;;;16.48;9.80;;;14.20;99.90;;;;;;5012444;28;20217;-58
2023/05/31 02:37:56;;;;;;;21.95;9.20;;;14.10;99.90;;;;;;5012830;28;20516;-58
2023/05/31 02:40:21;;;;;;;10.25;6.25;;;14.10;99.90;;;;;;5013752;28;20050;-58
2023/05/31 02:42:47;;;;;;;11.60;6.28;;;14.10;99.90;;;;;;5009971;28;20551;-58
2023/05/31 02:45:13;;;;;;;15.82;9.60;;;14.00;99.90;;;;;;5017140;28;20726;-58
2023/05/31 02:47:39;;;;;;;18.02;11.40;;;14.00;99.90;;;;;;5011780;28;20054;-58
2023/05/31 02:50:07;;;;;;;16.50;10.00;;;14.00;99.90;;;;;;5015287;28;20550;-57
2023/05/31 02:52:34;;;;;;;16.50;10.63;;;14.00;99.90;;;;;;5017398;28;20116;-58
2023/05/31 02:55:00;;;;;;;18.75;9.88;;;14.00;99.90;;;;;;5020198;28;20037;-58
2023/05/31 02:57:26;;;;;;;21.65;8.95;;;14.00;99.90;;;;;;5021997;28;20049;-58
2023/05/31 02:59:55;;;;;;;18.95;10.73;;;13.90;99.90;;;;;;5018603;28;20042;-58
2023/05/31 03:02:22;;;;;;;20.58;9.77;;;13.90;99.90;;;;;;5021254;28;20471;-58
2023/05/31 03:04:48;;;;;;;16.45;10.13;;;13.90;99.90;;;;;;5019416;28;20575;-58
2023/05/31 03:07:14;;;;;;;17.33;10.30;;;13.80;99.90;;;;;;5018617;28;20123;-58
2023/05/31 03:09:40;;;;;;;17.23;10.77;;;13.80;99.90;;;;;;5011808;28;20062;-58
2023/05/31 03:12:06;;;;;;;18.33;10.65;;;13.80;99.90;;;;;;5016320;28;20181;-59
2023/05/31 03:14:32;;;;;;;19.92;11.50;;;13.80;99.90;;;;;;5015524;28;20065;-57
2023/05/31 03:16:58;;;;;;;13.32;7.07;;;13.80;99.90;;;;;;5016719;28;20056;-57
2023/05/31 03:19:23;;;;;;;17.63;7.97;;;13.80;99.90;;;;;;5021812;28;20132;-57
2023/05/31 03:21:49;;;;;;;15.77;10.18;;;13.70;99.90;;;;;;5016812;28;20049;-58
2023/05/31 03:24:15;;;;;;;21.65;11.40;;;13.70;99.90;;;;;;5018414;28;20042;-58
2023/05/31 03:26:40;;;;;;;13.18;8.20;;;13.60;99.90;;;;;;5016441;28;20123;-58
2023/05/31 03:29:06;;;;;;;14.65;9.05;;;13.60;99.90;;;;;;5020063;28;20069;-59
2023/05/31 03:31:32;;;;;;;17.77;10.50;;;13.60;99.90;;;;;;5018894;28;20044;-58
2023/05/31 03:33:58;;;;;;;19.63;10.65;;;13.70;99.90;;;;;;5019301;28;20042;-58
2023/05/31 03:36:24;;;;;;;18.00;11.00;;;13.60;99.90;;;;;;5018323;28;20156;-58
2023/05/31 03:38:50;;;;;;;20.42;11.40;;;13.60;99.90;;;;;;5019454;28;20512;-58
2023/05/31 03:41:16;;;;;;;15.70;7.28;;;13.60;99.90;;;;;;5015541;28;20045;-58
2023/05/31 03:43:42;;;;;;;20.58;11.68;;;13.50;99.90;;;;;;5019799;28;20596;-58
2023/05/31 03:46:08;;;;;;;17.00;10.05;;;13.50;99.90;;;;;;5017122;28;20058;-58
2023/05/31 03:48:33;;;;;;;18.40;10.93;;;13.50;99.90;;;;;;5019161;28;20705;-58
2023/05/31 03:50:59;;;;;;;12.13;7.45;;;13.50;99.90;;;;;;5011404;28;20424;-57
2023/05/31 03:53:25;;;;;;;14.18;7.75;;;13.40;99.90;;;;;;5020921;28;20045;-58
2023/05/31 03:55:51;;;;;;;17.85;11.50;;;13.40;99.90;;;;;;5020579;28;20042;-58
2023/05/31 03:58:17;;;;;;;17.88;10.82;;;13.40;99.90;;;;;;5023492;28;20515;-58
2023/05/31 04:00:43;;;;;;;17.20;11.35;;;13.40;99.90;;;;;;5016088;28;20045;-58
2023/05/31 04:03:11;;;;;;;18.33;11.13;;;13.40;99.90;;;;;;5014045;28;20050;-59
2023/05/31 04:05:40;;;;;;;15.25;9.90;;;13.40;99.90;;;;;;5014276;28;20049;-58
2023/05/31 04:08:06;;;;;;;19.83;11.73;;;;;;;;;;5015184;28;20050;-58
2023/05/31 04:10:33;;;;;;;18.73;12.10;;;13.30;99.90;;;;;;5023103;28;20041;-57
2023/05/31 04:12:59;;;;;;;18.83;10.98;;;13.30;99.90;;;;;;5023099;28;20042;-58
2023/05/31 04:15:26;;;;;;;23.65;14.35;;;13.30;99.90;;;;;;5021473;28;20046;-58
2023/05/31 04:17:52;;;;;;;15.35;8.90;;;13.30;99.90;;;;;;5016334;28;20135;-58
2023/05/31 04:20:19;;;;;;;18.35;11.40;;;13.30;99.90;;;;;;5012013;28;20044;-58
2023/05/31 04:22:45;;;;;;;18.35;10.82;;;13.30;99.90;;;;;;5012774;28;20038;-58
2023/05/31 04:25:12;;;;;;;20.70;13.23;;;13.20;99.90;;;;;;5012934;28;20045;-58
2023/05/31 04:27:40;;;;;;;12.35;8.02;;;13.20;99.90;;;;;;5012569;28;20053;-58
2023/05/31 04:30:07;;;;;;;18.90;10.25;;;13.20;99.90;;;;;;5015144;28;20150;-57
2023/05/31 04:32:34;;;;;;;24.35;11.55;;;13.20;99.90;;;;;;5015514;28;20099;-58
2023/05/31 04:35:03;;;;;;;20.42;12.75;;;13.20;99.90;;;;;;5018427;28;20129;-58
2023/05/31 04:37:33;;;;;;;17.13;10.63;;;13.20;99.90;;;;;;5020350;28;20481;-58
2023/05/31 04:40:00;;;;;;;15.85;9.60;;;13.20;99.90;;;;;;5018236;28;20041;-57
2023/05/31 04:42:29;;;;;;;17.33;11.23;;;13.20;99.90;;;;;;5015778;28;21946;-58
2023/05/31 04:45:01;;;;;;;20.67;10.48;;;13.20;99.90;;;;;;5014405;28;20049;-58
2023/05/31 04:47:30;;;;;;;;;;;13.20;99.90;;;;;;5011002;28;20569;-58
2023/05/31 04:49:59;;;;;;;17.10;11.07;;;13.20;99.90;;;;;;5015901;28;20448;-58
2023/05/31 04:52:28;;;;;;;23.60;12.50;;;13.20;99.90;;;;;;5011022;28;20153;-58
2023/05/31 04:54:55;;;;;;;21.98;12.45;;;13.20;99.90;;;;;;5012621;28;20042;-58
2023/05/31 04:57:21;;;;;;;20.17;12.98;;;13.30;99.90;;;;;;5021321;28;20045;-58
2023/05/31 04:59:47;;;;;;;21.95;12.70;;;13.30;99.90;;;;;;5018515;28;20038;-58
2023/05/31 05:02:13;;;;;;;20.10;12.30;;;13.30;99.90;;;;;;5020241;28;20065;-58
2023/05/31 05:04:38;;;;;;;34.25;12.52;;;13.30;99.90;;;;;;5017465;28;20168;-58
2023/05/31 05:07:05;;;;;;;20.02;11.60;;;13.30;99.90;;;;;;5016482;28;20491;-58
2023/05/31 05:09:31;;;;;;;20.15;12.73;;;13.20;99.90;;;;;;5017048;28;20520;-58
2023/05/31 05:11:56;;;;;;;22.25;12.00;;;13.30;99.90;;;;;;5010576;28;21431;-57
2023/05/31 05:14:22;;;;;;;21.23;10.30;;;13.20;99.90;;;;;;5020705;28;20398;-58
2023/05/31 05:16:48;;;;;;;20.40;10.23;;;13.30;99.90;;;;;;5020622;28;20055;-58
2023/05/31 05:19:14;;;;;;;21.50;12.30;;;13.30;99.90;;;;;;5024594;28;20116;-58
2023/05/31 05:21:39;;;;;;;16.15;9.45;;;13.30;99.90;;;;;;5023125;28;20133;-58
2023/05/31 05:24:06;;;;;;;20.48;9.93;;;13.30;99.90;;;;;;5022780;28;20030;-58
2023/05/31 05:26:33;;;;;;;27.38;12.75;;;13.30;99.90;;;;;;5019299;28;20057;-58
2023/05/31 05:28:59;;;;;;;18.02;10.15;;;13.30;99.90;;;;;;5022503;28;20050;-57
2023/05/31 05:31:25;;;;;;;20.77;12.52;;;13.30;99.90;;;;;;5020486;28;20461;-58
2023/05/31 05:33:51;;;;;;;19.90;11.35;;;13.30;99.90;;;;;;5020281;28;20068;-58
2023/05/31 05:36:16;;;;;;;23.08;10.57;;;13.30;99.90;;;;;;5019774;28;20085;-58
2023/05/31 05:38:42;;;;;;;23.75;11.85;;;13.30;99.90;;;;;;5016022;28;20045;-58
2023/05/31 05:41:12;;;;;;;13.98;9.27;;;13.30;99.90;;;;;;5020682;28;20503;-60
2023/05/31 05:43:38;;;;;;;22.30;13.80;;;13.30;99.90;;;;;;5015014;28;20046;-57
2023/05/31 05:46:04;;;;;;;20.52;12.20;;;13.30;99.90;;;;;;5021009;28;20096;-57
2023/05/31 05:48:30;;;;;;;18.17;10.07;;;13.40;99.90;;;;;;5019172;28;20430;-58
2023/05/31 05:50:56;;;;;;;16.67;9.60;;;13.40;99.90;;;;;;5020392;28;20373;-58
2023/05/31 05:53:21;;;;;;;20.02;13.52;;;13.40;99.90;;;;;;5019565;28;20533;-58
2023/05/31 05:55:54;;;;;;;22.15;12.85;;;13.40;99.90;;;;;;5022286;28;20602;-58
2023/05/31 05:58:20;;;;;;;17.95;11.32;;;13.40;99.90;;;;;;5023351;28;20038;-59
2023/05/31 06:00:47;;;;;;;16.33;9.38;;;13.50;99.90;;;;;;5018037;28;20512;-60
2023/05/31 06:03:13;;;;;;;19.25;11.23;;;13.40;99.90;;;;;;5023472;28;20041;-58
2023/05/31 06:05:39;;;;;;;22.42;12.80;;;13.40;99.90;;;;;;5020779;28;20046;-61
2023/05/31 06:08:05;;;;;;;18.77;10.57;;;13.50;99.90;;;;;;5023024;28;20038;-58
2023/05/31 06:10:31;;;;;;;16.92;11.88;;;13.50;99.90;;;;;;5023321;28;20121;-58
2023/05/31 06:12:57;;;;;;;18.95;11.05;;;13.50;99.90;;;;;;5020166;28;20091;-58
2023/05/31 06:15:23;;;;;;;20.98;14.80;;;13.50;99.90;;;;;;5020439;28;20507;-58
2023/05/31 06:17:49;;;;;;;21.23;12.57;;;13.60;99.90;;;;;;5022919;28;20046;-58
2023/05/31 06:20:15;;;;;;;19.48;9.77;;;13.70;99.90;;;;;;5022218;28;20037;-58
2023/05/31 06:22:41;;;;;;;24.42;11.63;;;13.60;99.90;;;;;;5020820;28;20114;-57
2023/05/31 06:25:08;;;;;;;19.98;11.13;;;13.70;99.90;;;;;;5021246;28;20054;-57
2023/05/31 06:27:34;;;;;;;47.03;16.02;;;13.70;99.90;;;;;;5024364;28;20076;-59
2023/05/31 06:30:00;;;;;;;13.25;7.97;;;13.70;99.90;;;;;;5021752;28;20044;-58
2023/05/31 06:32:30;;;;;;;25.60;12.00;;;13.70;99.90;;;;;;5021207;28;21348;-58
2023/05/31 06:34:56;;;;;;;16.73;9.77;;;13.70;99.90;;;;;;5022585;28;20518;-58
2023/05/31 06:37:22;;;;;;;16.23;10.25;;;13.80;99.90;;;;;;5020410;28;20508;-58
2023/05/31 06:39:49;;;;;;;15.75;9.98;;;13.80;99.90;;;;;;5022176;28;20041;-59
2023/05/31 06:42:15;;;;;;;16.88;12.75;;;13.90;99.90;;;;;;5012040;28;20070;-58
2023/05/31 06:44:42;;;;;;;20.00;12.10;;;13.90;99.90;;;;;;5018592;28;20529;-58
2023/05/31 06:47:08;;;;;;;18.00;9.80;;;13.90;99.90;;;;;;5022225;28;20248;-57
2023/05/31 06:49:34;;;;;;;14.65;9.05;;;13.90;99.90;;;;;;5012197;28;20540;-58
2023/05/31 06:52:00;;;;;;;22.90;13.40;;;14.00;99.90;;;;;;5017968;28;20164;-58
2023/05/31 06:54:27;;;;;;;14.43;9.63;;;14.00;99.90;;;;;;5017779;28;20653;-57
2023/05/31 06:56:53;;;;;;;17.08;10.30;;;14.00;99.90;;;;;;5022600;28;20096;-59
2023/05/31 06:59:19;;;;;;;19.23;10.10;;;14.10;99.90;;;;;;5020689;28;20112;-58
2023/05/31 07:01:44;;;;;;;17.80;9.70;;;14.20;99.90;;;;;;5021524;28;20306;-58
2023/05/31 07:04:10;;;;;;;15.23;7.85;;;14.20;99.90;;;;;;5022397;28;20056;-57
2023/05/31 07:06:37;;;;;;;15.38;8.75;;;14.20;99.90;;;;;;5021137;28;20639;-57
2023/05/31 07:09:04;;;;;;;18.30;9.93;;;14.20;99.90;;;;;;5020628;28;20038;-58
2023/05/31 07:11:30;;;;;;;17.27;9.35;;;14.30;99.90;;;;;;5022580;28;20057;-58
2023/05/31 07:14:01;;;;;;;22.42;9.70;;;14.40;99.90;;;;;;5022217;28;20153;-58
2023/05/31 07:16:30;;;;;;;16.30;8.80;;;14.40;99.90;;;;;;5024097;28;20536;-57
2023/05/31 07:18:56;;;;;;;12.85;7.70;;;14.50;99.90;;;;;;5055691;28;20073;-57
2023/05/31 07:21:22;;;;;;;18.15;9.45;;;14.60;99.90;;;;;;5023240;28;20057;-57
2023/05/31 07:23:48;;;;;;;10.85;5.35;;;14.60;99.90;;;;;;5023428;28;20107;-58
2023/05/31 07:26:15;;;;;;;16.15;8.23;;;14.60;99.90;;;;;;5023489;28;20037;-58
2023/05/31 07:28:45;;;;;;;45.25;9.80;;;14.70;99.90;;;;;;5024212;28;20034;-58
2023/05/31 07:31:11;;;;;;;14.20;7.80;;;14.70;99.90;;;;;;5025497;28;20627;-58
2023/05/31 07:33:37;;;;;;;23.55;8.75;;;14.80;99.90;;;;;;5019523;28;20136;-58
2023/05/31 07:36:03;;;;;;;14.80;8.15;;;14.80;99.90;;;;;;5021509;28;20419;-58
2023/05/31 07:38:30;;;;;;;13.90;7.20;;;14.90;99.90;;;;;;5021142;28;20099;-58
2023/05/31 07:40:55;;;;;;;16.75;7.55;;;14.90;99.90;;;;;;5023569;28;20056;-58
2023/05/31 07:43:26;;;;;;;12.70;7.35;;;15.00;99.90;;;;;;5007374;28;20054;-58
2023/05/31 07:45:55;;;;;;;16.20;7.03;;;15.00;99.90;;;;;;5024217;28;20054;-58
2023/05/31 07:48:20;;;;;;;12.00;6.63;;;15.10;99.90;;;;;;5023134;28;20620;-59
2023/05/31 07:50:47;;;;;;;15.27;7.20;;;15.10;99.90;;;;;;5022212;28;20044;-58
2023/05/31 07:53:13;;;;;;;13.48;6.95;;;15.20;99.90;;;;;;5024861;28;20517;-57
2023/05/31 07:55:40;;;;;;;10.68;5.53;;;15.30;99.90;;;;;;5022283;28;20042;-57
2023/05/31 07:58:06;;;;;;;12.05;6.93;;;15.30;99.90;;;;;;5019596;28;20042;-58
2023/05/31 08:00:32;;;;;;;15.27;7.25;;;15.30;99.90;;;;;;5021537;28;20084;-58
2023/05/31 08:02:58;;;;;;;10.77;5.25;;;15.40;99.90;;;;;;5025262;28;20680;-58
2023/05/31 08:05:24;;;;;;;11.70;4.57;;;15.40;99.90;;;;;;5022202;28;20081;-58
2023/05/31 08:07:51;;;;;;;12.43;5.90;;;15.50;99.90;;;;;;5024481;28;20048;-60
2023/05/31 08:10:17;;;;;;;12.07;5.55;;;15.50;99.90;;;;;;5022937;28;20042;-58
2023/05/31 08:12:42;;;;;;;9.52;5.30;;;15.60;99.90;;;;;;5021440;28;20046;-58
2023/05/31 08:15:10;;;;;;;6.88;4.00;;;15.60;99.90;;;;;;5022329;28;20046;-58
2023/05/31 08:17:35;;;;;;;10.07;3.85;;;15.60;99.90;;;;;;5024934;28;20468;-58
2023/05/31 08:20:04;;;;;;;11.00;5.82;;;15.70;99.90;;;;;;5023572;28;20508;-58
2023/05/31 08:22:30;;;;;;;14.05;5.43;;;15.80;99.90;;;;;;5020726;28;20052;-58
2023/05/31 08:24:56;;;;;;;9.35;5.13;;;15.80;99.90;;;;;;5020232;28;20473;-57
2023/05/31 08:27:23;;;;;;;14.98;6.05;;;15.80;99.90;;;;;;5021605;28;20049;-59
2023/05/31 08:29:49;;;;;;;12.30;5.70;;;15.90;99.90;;;;;;5022801;28;20088;-58
2023/05/31 08:32:15;;;;;;;13.55;5.07;;;15.90;99.90;;;;;;5054085;28;20053;-58
2023/05/31 08:34:41;;;;;;;8.85;5.47;;;15.90;99.90;;;;;;5022985;28;20091;-58
2023/05/31 08:37:07;;;;;;;9.77;5.25;;;16.00;99.90;;;;;;5022269;28;20578;-58
2023/05/31 08:39:32;;;;;;;9.52;4.05;;;16.00;99.90;;;;;;5025836;28;20050;-57
2023/05/31 08:42:12;;;;;;;9.10;5.15;;;16.10;99.90;;;;;;5056289;28;20057;-58
2023/05/31 08:44:38;;;;;;;11.57;5.68;;;16.10;99.90;;;;;;5026225;28;20038;-58
2023/05/31 08:47:21;;;;;;;7.10;4.85;;;16.20;99.90;;;;;;5025100;28;20085;-58
2023/05/31 08:49:48;;;;;;;7.15;4.38;;;16.20;99.90;;;;;;5026718;28;20209;-58
2023/05/31 08:52:14;;;;;;;9.05;5.72;;;16.30;99.90;;;;;;5025148;28;20159;-58
2023/05/31 08:54:42;;;;;;;11.80;5.10;;;16.30;99.90;;;;;;5025990;28;20041;-58
2023/05/31 08:57:09;;;;;;;13.35;5.20;;;16.30;99.90;;;;;;5025559;28;20050;-59
2023/05/31 08:59:36;;;;;;;6.70;4.28;;;16.40;99.90;;;;;;5024968;28;20049;-57
2023/05/31 09:02:03;;;;;;;8.60;4.68;;;16.40;99.90;;;;;;5025106;28;20051;-57
2023/05/31 09:04:29;;;;;;;8.73;4.05;;;16.50;99.90;;;;;;5022456;28;20044;-59
2023/05/31 09:06:55;;;;;;;7.97;4.00;;;16.50;99.90;;;;;;5026005;28;20459;-57
2023/05/31 09:09:20;;;;;;;9.85;4.68;;;16.60;99.90;;;;;;5025156;28;20037;-58
2023/05/31 09:11:46;;;;;;;11.65;4.72;;;16.60;99.90;;;;;;5025486;28;20657;-57
2023/05/31 09:14:12;;;;;;;12.48;5.47;;;16.60;99.90;;;;;;5026071;28;20534;-58
2023/05/31 09:16:38;;;;;;;13.18;4.63;;;16.70;99.90;;;;;;5025786;28;20029;-58
2023/05/31 09:19:05;;;;;;;7.45;3.30;;;16.70;99.90;;;;;;5025079;28;20115;-58
2023/05/31 09:21:42;;;;;;;10.00;5.78;;;16.70;99.90;;;;;;5025014;28;20049;-58
2023/05/31 09:24:10;;;;;;;9.68;4.35;;;16.90;99.90;;;;;;5025616;28;20044;-58
2023/05/31 09:26:45;;;;;;;8.10;4.43;;;17.00;99.90;;;;;;5025117;28;20505;-57
2023/05/31 09:29:11;;;;;;;10.10;3.90;;;17.10;99.90;;;;;;5026319;28;20033;-57
2023/05/31 09:31:37;;;;;;;11.13;4.32;;;17.10;99.90;;;;;;5022935;28;20085;-58
2023/05/31 09:34:02;;;;;;;8.90;4.40;;;17.10;99.90;;;;;;5025204;28;20049;-57
2023/05/31 09:36:31;;;;;;;13.10;5.15;;;17.20;99.90;;;;;;5024589;28;20057;-57
2023/05/31 09:39:07;;;;;;;13.43;4.40;;;17.20;99.90;;;;;;5024901;28;20124;-58
2023/05/31 09:41:33;;;;;;;13.35;4.35;;;17.30;99.90;;;;;;5026643;28;20058;-57
2023/05/31 09:43:59;;;;;;;6.90;4.32;;;17.40;99.90;;;;;;5024325;28;20510;-57
2023/05/31 09:46:26;;;;;;;21.85;5.80;;;17.50;99.90;;;;;;5024252;28;20892;-57
2023/05/31 09:49:03;;;;;;;13.40;6.38;;;17.60;99.90;;;;;;5024741;28;20128;-57
2023/05/31 09:51:31;;;;;;;6.35;3.65;;;17.60;99.90;;;;;;5024844;28;20049;-57
2023/05/31 09:53:58;;;;;;;12.00;4.03;;;17.60;99.90;;;;;;5026461;28;20045;-58
2023/05/31 09:56:25;;;;;;;9.07;3.65;;;17.60;99.90;;;;;;5023073;28;20518;-57
2023/05/31 09:58:52;;;;;;;9.15;4.28;;;17.70;99.90;;;;;;5024613;28;20498;-58
2023/05/31 10:01:18;;;;;;;6.57;3.42;;;17.80;99.90;;;;;;5022535;28;20061;-57
2023/05/31 10:03:45;;;;;;;6.70;3.08;;;17.80;99.90;;;;;;5023033;28;20041;-57
2023/05/31 10:06:13;;;;;;;9.45;4.18;;;17.80;99.90;;;;;;5055051;28;20081;-57
2023/05/31 10:08:40;;;;;;;8.05;4.35;;;17.90;99.90;;;;;;5023101;28;20049;-57
2023/05/31 10:11:06;;;;;;;5.50;3.47;;;17.90;99.90;;;;;;5022674;28;20054;-59
2023/05/31 10:13:32;;;;;;;9.30;3.13;;;18.00;99.90;;;;;;5024269;28;20109;-57
2023/05/31 10:16:06;;;;;;;7.18;3.33;;;18.00;99.90;;;;;;5024754;28;20073;-58
2023/05/31 10:18:36;;;;;;;8.65;3.58;;;18.10;99.90;;;;;;5024417;28;20041;-57
2023/05/31 10:21:09;;;;;;;9.20;3.30;;;18.10;99.90;;;;;;5024250;28;20160;-58
2023/05/31 10:23:43;;;;;;;8.85;3.55;;;18.20;99.90;;;;;;5023503;28;20046;-58
2023/05/31 10:26:13;;;;;;;9.93;3.85;;;18.20;99.90;;;;;;5022153;28;20133;-58
2023/05/31 10:28:48;;;;;;;8.98;3.47;;;18.20;99.90;;;;;;5021878;28;20527;-57
2023/05/31 10:31:14;;;;;;;11.32;3.40;;;18.30;99.90;;;;;;5021287;28;20132;-57
2023/05/31 10:33:48;;;;;;;4.40;2.10;;;18.30;99.90;;;;;;5023201;28;20582;-57
2023/05/31 10:36:14;;;;;;;9.70;2.97;;;18.40;99.90;;;;;;5022807;28;20127;-58
2023/05/31 10:38:48;;;;;;;5.90;3.63;;;18.50;99.90;;;;;;5023714;28;20431;-59
2023/05/31 10:41:21;;;;;;;7.43;3.05;;;18.50;99.90;;;;;;5024166;28;20546;-58
2023/05/31 10:43:55;;;;;;;11.25;4.43;;;18.60;99.60;;;;;;5022123;28;20574;-58
2023/05/31 10:46:25;;;;;;;7.55;3.65;;;18.70;99.30;;;;;;5021514;28;20054;-58
2023/05/31 10:48:56;;;;;;;8.38;2.75;;;18.70;98.90;;;;;;5023505;28;20038;-58
2023/05/31 10:51:44;;;;;;;6.50;2.80;;;18.70;98.80;;;;;;5021711;28;20159;-57
2023/05/31 10:54:18;;;;;;;15.00;3.53;;;18.80;98.30;;;;;;5025207;28;20135;-58
2023/05/31 10:56:55;;;;;;;4.82;2.75;;;18.80;98.00;;;;;;5021991;28;20542;-57
2023/05/31 10:59:22;;;;;;;5.25;2.67;;;18.90;97.80;;;;;;5022891;28;20459;-58
2023/05/31 11:01:48;;;;;;;7.13;3.17;;;19.00;97.60;;;;;;5019467;28;20195;-60
2023/05/31 11:04:22;;;;;;;13.60;3.13;;;19.10;97.50;;;;;;5021490;28;20046;-58
2023/05/31 11:06:52;;;;;;;4.45;2.60;;;19.10;97.00;;;;;;5020717;28;20050;-58
2023/05/31 11:09:18;;;;;;;9.73;3.38;;;19.10;96.80;;;;;;5022532;28;20552;-58
2023/05/31 11:11:49;;;;;;;5.97;3.03;;;19.20;96.60;;;;;;5024710;28;20046;-60
2023/05/31 11:14:26;;;;;;;9.48;3.20;;;19.20;96.30;;;;;;5036920;28;20176;-57
2023/05/31 11:16:59;;;;;;;6.32;3.67;;;19.30;96.10;;;;;;5025444;28;20042;-58
2023/05/31 11:19:29;;;;;;;4.75;2.88;;;19.30;96.10;;;;;;5024001;28;20056;-57
2023/05/31 11:22:10;;;;;;;5.40;2.75;;;19.30;95.90;;;;;;5020562;28;20054;-57
2023/05/31 11:24:38;;;;;;;9.45;3.30;;;19.40;95.80;;;;;;5023397;28;20047;-57
2023/05/31 11:27:06;;;;;;;10.50;2.78;;;19.40;96.00;;;;;;5024272;28;20124;-57
2023/05/31 11:29:44;;;;;;;9.85;3.38;;;19.50;95.80;;;;;;5023875;28;20076;-57
2023/05/31 11:32:11;;;;;;;9.02;3.17;;;19.50;95.80;;;;;;5023715;28;20119;-58
2023/05/31 11:34:56;;;;;;;5.00;3.65;;;19.50;95.70;;;;;;5023476;28;20076;-57
2023/05/31 11:37:29;;;;;;;15.52;5.28;;;19.50;95.70;;;;;;5023633;28;20069;-57
2023/05/31 11:39:56;;;;;;;8.43;3.13;;;19.60;95.60;;;;;;5024890;28;20045;-58
2023/05/31 11:42:22;;;;;;;6.90;3.03;;;19.70;95.70;;;;;;5023608;28;20081;-58
2023/05/31 11:44:50;;;;;;;8.68;3.40;;;19.70;95.60;;;;;;5024364;28;20114;-58
2023/05/31 11:47:26;;;;;;;6.63;3.13;;;19.80;95.60;;;;;;5024397;28;20046;-58
2023/05/31 11:49:52;;;;;;;5.57;3.60;;;19.90;95.30;;;;;;5024380;28;20646;-58
2023/05/31 11:52:19;;;;;;;6.35;2.88;;;19.90;95.10;;;;;;5022238;28;20049;-58
2023/05/31 11:54:48;;;;;;;6.13;3.45;;;20.00;95.30;;;;;;5022425;28;20089;-57
2023/05/31 11:57:16;;;;;;;15.95;4.93;;;20.00;94.90;;;;;;5021013;28;20124;-57
2023/05/31 11:59:42;;;;;;;14.07;3.65;;;20.00;94.80;;;;;;5023802;28;20104;-58
2023/05/31 12:02:10;;;;;;;11.10;3.47;;;20.10;94.80;;;;;;5022869;28;20849;-58
2023/05/31 12:04:37;;;;;;;11.95;3.95;;;20.10;94.80;;;;;;5018698;28;20041;-58
2023/05/31 12:07:05;;;;;;;11.95;4.32;;;20.20;94.80;;;;;;5022284;28;20044;-57
2023/05/31 12:09:33;;;;;;;18.13;4.50;;;20.30;94.40;;;;;;5023583;28;20522;-58
2023/05/31 12:12:02;;;;;;;8.10;3.60;;;20.20;94.20;;;;;;5053868;28;20045;-58
2023/05/31 12:14:28;;;;;;;5.47;3.05;;;20.30;94.30;;;;;;5025058;28;20041;-57
2023/05/31 12:16:54;;;;;;;6.50;3.17;;;20.40;94.20;;;;;;5026211;28;20416;-58
2023/05/31 12:19:20;;;;;;;10.50;3.17;;;20.40;94.20;;;;;;5026059;28;20042;-57
2023/05/31 12:21:47;;;;;;;8.27;3.70;;;20.50;94.00;;;;;;5022852;28;20045;-58
2023/05/31 12:24:15;;;;;;;7.50;3.80;;;20.50;93.70;;;;;;5027968;28;20576;-57
2023/05/31 12:26:44;;;;;;;17.73;5.00;;;20.50;93.80;;;;;;5024779;28;20280;-57
2023/05/31 12:29:14;;;;;;;7.25;2.95;;;20.60;93.70;;;;;;5025714;28;20080;-58
2023/05/31 12:31:40;;;;;;;4.55;2.58;;;20.60;93.60;;;;;;5024505;28;20053;-58
2023/05/31 12:34:05;;;;;;;20.30;5.45;;;20.70;93.40;;;;;;5024801;28;20290;-57
2023/05/31 12:36:42;;;;;;;11.38;3.38;;;20.70;93.40;;;;;;5026276;28;20348;-57
2023/05/31 12:39:28;;;;;;;7.32;3.50;;;20.80;93.70;;;;;;5025837;28;20479;-58
2023/05/31 12:41:54;;;;;;;3.85;2.63;;;20.90;93.60;;;;;;5023952;28;20733;-58